sensor_id;sensor_type;location;lat;lon;timestamp;pressure;altitude;pressure_sealevel;temperature;humidity
86279;BME280;76943;49.872;8.658;2024-03-06T00:02:09;100035.59;;;18.54;48.44
86279;BME280;76943;49.872;8.658;2024-03-06T00:04:35;100039.56;;;18.53;48.46
86279;BME280;76943;49.872;8.658;2024-03-06T00:07:00;100038.75;;;18.53;48.49
86279;BME280;76943;49.872;8.658;2024-03-06T00:09:26;100045.53;;;18.52;48.50
86279;BME280;76943;49.872;8.658;2024-03-06T00:11:52;100044.22;;;18.49;48.46
86279;BME280;76943;49.872;8.658;2024-03-06T00:14:17;100045.06;;;18.50;48.43
86279;BME280;76943;49.872;8.658;2024-03-06T00:16:43;100059.44;;;18.48;48.45
86279;BME280;76943;49.872;8.658;2024-03-06T00:19:08;100046.59;;;18.47;48.59
86279;BME280;76943;49.872;8.658;2024-03-06T00:21:33;100055.72;;;18.44;48.46
86279;BME280;76943;49.872;8.658;2024-03-06T00:23:58;100048.59;;;18.47;48.55
86279;BME280;76943;49.872;8.658;2024-03-06T00:26:23;100052.91;;;18.44;48.47
86279;BME280;76943;49.872;8.658;2024-03-06T00:28:48;100060.84;;;18.42;48.76
86279;BME280;76943;49.872;8.658;2024-03-06T00:31:14;100047.97;;;18.41;48.54
86279;BME280;76943;49.872;8.658;2024-03-06T00:33:40;100059.22;;;18.41;48.74
86279;BME280;76943;49.872;8.658;2024-03-06T00:36:05;100061.19;;;18.41;48.72
86279;BME280;76943;49.872;8.658;2024-03-06T00:38:31;100068.31;;;18.38;48.65
86279;BME280;76943;49.872;8.658;2024-03-06T00:40:56;100070.66;;;18.36;48.77
86279;BME280;76943;49.872;8.658;2024-03-06T00:43:22;100080.72;;;18.37;48.82
86279;BME280;76943;49.872;8.658;2024-03-06T00:45:47;100076.28;;;18.36;48.73
86279;BME280;76943;49.872;8.658;2024-03-06T00:48:12;100087.03;;;18.34;48.49
86279;BME280;76943;49.872;8.658;2024-03-06T00:50:38;100083.41;;;18.34;48.58
86279;BME280;76943;49.872;8.658;2024-03-06T00:53:03;100082.56;;;18.33;48.72
86279;BME280;76943;49.872;8.658;2024-03-06T00:55:29;100078.94;;;18.33;48.91
86279;BME280;76943;49.872;8.658;2024-03-06T00:57:54;100082.94;;;18.32;48.67
86279;BME280;76943;49.872;8.658;2024-03-06T01:00:19;100073.19;;;18.29;48.85
86279;BME280;76943;49.872;8.658;2024-03-06T01:02:44;100077.66;;;18.30;49.09
86279;BME280;76943;49.872;8.658;2024-03-06T01:05:10;100078.00;;;18.29;49.03
86279;BME280;76943;49.872;8.658;2024-03-06T01:07:38;100073.53;;;18.28;48.68
86279;BME280;76943;49.872;8.658;2024-03-06T01:10:08;100076.34;;;18.28;48.84
86279;BME280;76943;49.872;8.658;2024-03-06T01:12:34;100085.94;;;18.27;48.87
86279;BME280;76943;49.872;8.658;2024-03-06T01:14:59;100087.94;;;18.26;48.76
86279;BME280;76943;49.872;8.658;2024-03-06T01:17:24;100088.75;;;18.27;48.86
86279;BME280;76943;49.872;8.658;2024-03-06T01:19:50;100088.28;;;18.25;48.76
86279;BME280;76943;49.872;8.658;2024-03-06T01:22:15;100079.38;;;18.22;48.82
86279;BME280;76943;49.872;8.658;2024-03-06T01:24:40;100087.78;;;18.22;48.95
86279;BME280;76943;49.872;8.658;2024-03-06T01:27:05;100083.81;;;18.23;48.85
86279;BME280;76943;49.872;8.658;2024-03-06T01:29:30;100086.63;;;18.23;48.61
86279;BME280;76943;49.872;8.658;2024-03-06T01:31:56;100088.63;;;18.23;48.81
86279;BME280;76943;49.872;8.658;2024-03-06T01:34:21;100088.97;;;18.21;48.94
86279;BME280;76943;49.872;8.658;2024-03-06T01:36:47;100085.34;;;18.21;48.53
86279;BME280;76943;49.872;8.658;2024-03-06T01:39:12;100097.38;;;18.21;48.94
86279;BME280;76943;49.872;8.658;2024-03-06T01:41:37;100088.84;;;18.18;49.06
86279;BME280;76943;49.872;8.658;2024-03-06T01:44:02;100083.25;;;18.18;48.57
86279;BME280;76943;49.872;8.658;2024-03-06T01:46:28;100094.09;;;18.19;48.79
86279;BME280;76943;49.872;8.658;2024-03-06T01:48:53;100088.84;;;18.18;49.01
86279;BME280;76943;49.872;8.658;2024-03-06T01:51:19;100096.44;;;18.17;48.78
86279;BME280;76943;49.872;8.658;2024-03-06T01:53:44;100095.63;;;18.17;49.03
86279;BME280;76943;49.872;8.658;2024-03-06T01:56:09;100019.66;;;17.68;48.72
86279;BME280;76943;49.872;8.658;2024-03-06T01:58:36;100095.16;;;18.15;48.64
86279;BME280;76943;49.872;8.658;2024-03-06T02:01:02;100105.56;;;18.14;48.95
86279;BME280;76943;49.872;8.658;2024-03-06T02:03:27;100101.94;;;18.14;48.98
86279;BME280;76943;49.872;8.658;2024-03-06T02:05:53;100103.44;;;18.11;48.83
86279;BME280;76943;49.872;8.658;2024-03-06T02:08:19;100102.63;;;18.11;48.97
86279;BME280;76943;49.872;8.658;2024-03-06T02:10:44;100104.13;;;18.08;49.06
86279;BME280;76943;49.872;8.658;2024-03-06T02:13:09;100097.34;;;18.09;48.79
86279;BME280;76943;49.872;8.658;2024-03-06T02:15:34;100093.25;;;18.07;48.68
86279;BME280;76943;49.872;8.658;2024-03-06T02:18:04;100098.03;;;18.06;48.79
86279;BME280;76943;49.872;8.658;2024-03-06T02:20:29;100099.53;;;18.04;48.96
86279;BME280;76943;49.872;8.658;2024-03-06T02:22:54;100093.09;;;18.03;48.98
86279;BME280;76943;49.872;8.658;2024-03-06T02:25:19;100092.63;;;18.01;48.73
86279;BME280;76943;49.872;8.658;2024-03-06T02:27:44;100095.78;;;18.00;48.90
86279;BME280;76943;49.872;8.658;2024-03-06T02:30:10;100094.94;;;17.99;49.20
86279;BME280;76943;49.872;8.658;2024-03-06T02:32:35;100094.94;;;17.99;49.22
86279;BME280;76943;49.872;8.658;2024-03-06T02:35:01;100088.53;;;17.99;49.14
86279;BME280;76943;49.872;8.658;2024-03-06T02:37:27;100088.03;;;17.97;49.24
86279;BME280;76943;49.872;8.658;2024-03-06T02:39:53;100094.47;;;17.97;49.28
86279;BME280;76943;49.872;8.658;2024-03-06T02:42:18;100102.41;;;17.95;49.34
86279;BME280;76943;49.872;8.658;2024-03-06T02:44:43;100107.19;;;17.95;49.21
86279;BME280;76943;49.872;8.658;2024-03-06T02:47:08;100108.50;;;17.97;49.47
86279;BME280;76943;49.872;8.658;2024-03-06T02:49:33;100107.19;;;17.95;49.10
86279;BME280;76943;49.872;8.658;2024-03-06T02:51:58;100105.22;;;17.95;48.73
86279;BME280;76943;49.872;8.658;2024-03-06T02:54:25;100092.00;;;17.96;48.97
86279;BME280;76943;49.872;8.658;2024-03-06T02:56:51;100102.41;;;17.95;48.73
86279;BME280;76943;49.872;8.658;2024-03-06T02:59:16;100108.38;;;17.94;48.78
86279;BME280;76943;49.872;8.658;2024-03-06T03:01:41;100109.53;;;17.93;49.00
86279;BME280;76943;49.872;8.658;2024-03-06T03:04:07;100113.16;;;17.93;49.02
86279;BME280;76943;49.872;8.658;2024-03-06T03:06:32;100105.06;;;17.92;48.93
86279;BME280;76943;49.872;8.658;2024-03-06T03:08:57;100109.03;;;17.91;49.27
86279;BME280;76943;49.872;8.658;2024-03-06T03:11:22;100100.63;;;17.91;48.75
86279;BME280;76943;49.872;8.658;2024-03-06T03:13:47;100111.41;;;17.88;48.93
86279;BME280;76943;49.872;8.658;2024-03-06T03:16:16;100097.38;;;17.88;48.93
86279;BME280;76943;49.872;8.658;2024-03-06T03:18:42;100097.38;;;17.88;48.92
86279;BME280;76943;49.872;8.658;2024-03-06T03:21:08;100102.16;;;17.88;49.10
86279;BME280;76943;49.872;8.658;2024-03-06T03:23:33;100106.94;;;17.87;49.13
86279;BME280;76943;49.872;8.658;2024-03-06T03:26:00;100113.72;;;17.86;48.63
86279;BME280;76943;49.872;8.658;2024-03-06T03:28:25;100107.28;;;17.86;49.18
86279;BME280;76943;49.872;8.658;2024-03-06T03:30:50;100110.91;;;17.86;48.92
86279;BME280;76943;49.872;8.658;2024-03-06T03:33:15;100120.50;;;17.85;49.22
86279;BME280;76943;49.872;8.658;2024-03-06T03:35:41;100114.06;;;17.85;49.06
86279;BME280;76943;49.872;8.658;2024-03-06T03:38:06;100121.66;;;17.84;49.11
86279;BME280;76943;49.872;8.658;2024-03-06T03:40:32;100121.19;;;17.82;49.07
86279;BME280;76943;49.872;8.658;2024-03-06T03:42:57;100124.81;;;17.83;49.02
86279;BME280;76943;49.872;8.658;2024-03-06T03:45:23;100114.75;;;17.82;48.88
86279;BME280;76943;49.872;8.658;2024-03-06T03:47:48;100117.56;;;17.82;49.07
86279;BME280;76943;49.872;8.658;2024-03-06T03:50:13;100118.72;;;17.81;48.86
86279;BME280;76943;49.872;8.658;2024-03-06T03:52:38;100123.50;;;17.80;48.54
86279;BME280;76943;49.872;8.658;2024-03-06T03:55:06;100129.09;;;17.80;49.24
86279;BME280;76943;49.872;8.658;2024-03-06T03:57:32;100139.50;;;17.80;48.89
86279;BME280;76943;49.872;8.658;2024-03-06T03:59:57;100137.53;;;17.80;49.04
86279;BME280;76943;49.872;8.658;2024-03-06T04:02:22;100134.25;;;17.78;48.81
86279;BME280;76943;49.872;8.658;2024-03-06T04:04:47;100130.28;;;17.79;49.41
86279;BME280;76943;49.872;8.658;2024-03-06T04:07:13;100135.41;;;17.77;48.48
86279;BME280;76943;49.872;8.658;2024-03-06T04:09:38;100128.97;;;17.77;49.33
86279;BME280;76943;49.872;8.658;2024-03-06T04:12:04;100131.78;;;17.77;49.13
86279;BME280;76943;49.872;8.658;2024-03-06T04:14:29;100128.97;;;17.77;48.75
86279;BME280;76943;49.872;8.658;2024-03-06T04:16:55;100136.56;;;17.76;49.02
86279;BME280;76943;49.872;8.658;2024-03-06T04:19:20;100129.31;;;17.75;48.59
86279;BME280;76943;49.872;8.658;2024-03-06T04:21:45;100132.94;;;17.76;49.12
86279;BME280;76943;49.872;8.658;2024-03-06T04:24:10;100136.06;;;17.74;49.28
86279;BME280;76943;49.872;8.658;2024-03-06T04:26:35;100140.88;;;17.74;48.81
86279;BME280;76943;49.872;8.658;2024-03-06T04:29:01;100155.72;;;17.74;48.88
86279;BME280;76943;49.872;8.658;2024-03-06T04:31:26;100158.50;;;17.74;48.45
86279;BME280;76943;49.872;8.658;2024-03-06T04:33:51;100154.06;;;17.73;49.10
86279;BME280;76943;49.872;8.658;2024-03-06T04:36:16;100168.09;;;17.73;49.04
86279;BME280;76943;49.872;8.658;2024-03-06T04:38:42;100168.09;;;17.73;49.15
86279;BME280;76943;49.872;8.658;2024-03-06T04:41:07;100167.28;;;17.73;48.78
86279;BME280;76943;49.872;8.658;2024-03-06T04:43:32;100176.03;;;17.71;48.81
86279;BME280;76943;49.872;8.658;2024-03-06T04:45:57;100167.59;;;17.71;49.22
86279;BME280;76943;49.872;8.658;2024-03-06T04:48:22;100168.78;;;17.70;48.65
86279;BME280;76943;49.872;8.658;2024-03-06T04:50:48;100186.41;;;17.71;48.57
86279;BME280;76943;49.872;8.658;2024-03-06T04:53:13;100188.84;;;17.81;48.53
86279;BME280;76943;49.872;8.658;2024-03-06T04:55:38;100180.97;;;17.95;48.39
86279;BME280;76943;49.872;8.658;2024-03-06T04:58:04;100184.00;;;18.11;48.68
86279;BME280;76943;49.872;8.658;2024-03-06T05:00:29;100177.28;;;18.24;48.15
86279;BME280;76943;49.872;8.658;2024-03-06T05:02:55;100182.47;;;18.34;48.04
86279;BME280;76943;49.872;8.658;2024-03-06T05:05:20;100181.13;;;18.40;48.23
86279;BME280;76943;49.872;8.658;2024-03-06T05:07:46;100184.06;;;18.44;48.23
86279;BME280;76943;49.872;8.658;2024-03-06T05:10:11;100186.53;;;18.45;48.17
86279;BME280;76943;49.872;8.658;2024-03-06T05:12:36;100187.34;;;18.46;47.86
86279;BME280;76943;49.872;8.658;2024-03-06T05:15:01;100187.34;;;18.46;48.13
86279;BME280;76943;49.872;8.658;2024-03-06T05:17:27;100192.13;;;18.45;48.16
86279;BME280;76943;49.872;8.658;2024-03-06T05:19:53;100198.56;;;18.46;47.86
86279;BME280;76943;49.872;8.658;2024-03-06T05:22:19;100196.09;;;18.44;48.05
86279;BME280;76943;49.872;8.658;2024-03-06T05:24:45;100200.56;;;18.45;48.15
86279;BME280;76943;49.872;8.658;2024-03-06T05:27:10;100212.13;;;18.44;48.36
86279;BME280;76943;49.872;8.658;2024-03-06T05:29:38;100206.03;;;18.42;48.05
86279;BME280;76943;49.872;8.658;2024-03-06T05:32:03;100212.47;;;18.42;47.97
86279;BME280;76943;49.872;8.658;2024-03-06T05:34:29;100208.03;;;18.41;48.11
86279;BME280;76943;49.872;8.658;2024-03-06T05:36:54;100216.44;;;18.41;47.85
86279;BME280;76943;49.872;8.658;2024-03-06T05:39:20;100209.81;;;18.46;48.19
86279;BME280;76943;49.872;8.658;2024-03-06T05:41:45;100217.78;;;18.56;48.19
86279;BME280;76943;49.872;8.658;2024-03-06T05:44:10;100223.84;;;18.67;48.05
86279;BME280;76943;49.872;8.658;2024-03-06T05:46:35;100222.81;;;18.71;48.01
86279;BME280;76943;49.872;8.658;2024-03-06T05:49:01;100226.94;;;18.74;47.81
86279;BME280;76943;49.872;8.658;2024-03-06T05:51:26;100229.41;;;18.75;47.83
86279;BME280;76943;49.872;8.658;2024-03-06T05:53:52;100233.38;;;18.74;47.64
86279;BME280;76943;49.872;8.658;2024-03-06T05:56:17;100233.38;;;18.74;47.37
86279;BME280;76943;49.872;8.658;2024-03-06T05:58:43;100234.19;;;18.75;47.91
86279;BME280;76943;49.872;8.658;2024-03-06T06:01:11;100234.53;;;18.73;47.76
86279;BME280;76943;49.872;8.658;2024-03-06T06:03:36;100237.69;;;18.72;47.70
86279;BME280;76943;49.872;8.658;2024-03-06T06:06:03;100247.28;;;18.71;47.84
86279;BME280;76943;49.872;8.658;2024-03-06T06:08:28;100247.63;;;18.69;47.73
86279;BME280;76943;49.872;8.658;2024-03-06T06:10:54;100248.78;;;18.68;47.89
86279;BME280;76943;49.872;8.658;2024-03-06T06:13:19;100251.13;;;18.66;47.72
86279;BME280;76943;49.872;8.658;2024-03-06T06:15:44;100250.28;;;18.66;47.85
86279;BME280;76943;49.872;8.658;2024-03-06T06:18:10;100261.06;;;18.64;47.66
86279;BME280;76943;49.872;8.658;2024-03-06T06:20:35;100254.94;;;18.62;47.86
86279;BME280;76943;49.872;8.658;2024-03-06T06:23:00;100261.53;;;18.66;47.77
86279;BME280;76943;49.872;8.658;2024-03-06T06:25:25;100261.81;;;18.73;47.73
86279;BME280;76943;49.872;8.658;2024-03-06T06:27:51;100261.00;;;18.84;47.75
86279;BME280;76943;49.872;8.658;2024-03-06T06:30:16;100262.78;;;18.89;47.26
86279;BME280;76943;49.872;8.658;2024-03-06T06:32:42;100262.94;;;18.93;47.34
86279;BME280;76943;49.872;8.658;2024-03-06T06:35:07;100277.81;;;18.93;47.20
86279;BME280;76943;49.872;8.658;2024-03-06T06:37:34;100280.63;;;18.93;47.23
86279;BME280;76943;49.872;8.658;2024-03-06T06:39:59;100278.97;;;18.92;47.17
86279;BME280;76943;49.872;8.658;2024-03-06T06:42:24;100284.94;;;18.91;47.55
86279;BME280;76943;49.872;8.658;2024-03-06T06:44:49;100281.28;;;18.90;47.60
86279;BME280;76943;49.872;8.658;2024-03-06T06:47:14;100281.63;;;18.88;47.32
86279;BME280;76943;49.872;8.658;2024-03-06T06:49:40;100285.63;;;18.87;47.38
86279;BME280;76943;49.872;8.658;2024-03-06T06:52:05;100295.22;;;18.86;47.62
86279;BME280;76943;49.872;8.658;2024-03-06T06:54:30;100303.66;;;18.86;47.62
86279;BME280;76943;49.872;8.658;2024-03-06T06:56:56;100302.34;;;18.84;47.65
86279;BME280;76943;49.872;8.658;2024-03-06T06:59:21;100309.13;;;18.83;47.60
86279;BME280;76943;49.872;8.658;2024-03-06T07:01:48;100308.66;;;18.81;47.51
86279;BME280;76943;49.872;8.658;2024-03-06T07:04:13;100305.00;;;18.80;47.63
86279;BME280;76943;49.872;8.658;2024-03-06T07:06:41;100314.59;;;18.79;47.49
86279;BME280;76943;49.872;8.658;2024-03-06T07:09:06;100324.53;;;18.77;47.58
86279;BME280;76943;49.872;8.658;2024-03-06T07:11:34;100328.53;;;18.76;47.75
86279;BME280;76943;49.872;8.658;2024-03-06T07:13:59;100327.72;;;18.75;47.48
86279;BME280;76943;49.872;8.658;2024-03-06T07:16:24;100326.06;;;18.74;47.48
86279;BME280;76943;49.872;8.658;2024-03-06T07:18:49;100334.03;;;18.72;47.56
86279;BME280;76943;49.872;8.658;2024-03-06T07:21:14;100332.38;;;18.71;47.46
86279;BME280;76943;49.872;8.658;2024-03-06T07:23:40;100337.19;;;18.71;47.54
86279;BME280;76943;49.872;8.658;2024-03-06T07:26:05;100329.09;;;18.69;47.42
86279;BME280;76943;49.872;8.658;2024-03-06T07:28:30;100341.16;;;18.70;47.49
86279;BME280;76943;49.872;8.658;2024-03-06T07:30:55;100342.31;;;18.69;47.46
86279;BME280;76943;49.872;8.658;2024-03-06T07:33:20;100346.28;;;18.68;47.60
86279;BME280;76943;49.872;8.658;2024-03-06T07:35:45;100353.88;;;18.67;47.91
86279;BME280;76943;49.872;8.658;2024-03-06T07:38:10;100353.53;;;18.69;47.47
86279;BME280;76943;49.872;8.658;2024-03-06T07:40:36;100355.44;;;18.77;47.65
86279;BME280;76943;49.872;8.658;2024-03-06T07:43:01;100358.19;;;18.85;47.39
86279;BME280;76943;49.872;8.658;2024-03-06T07:45:26;100362.25;;;18.97;47.49
86279;BME280;76943;49.872;8.658;2024-03-06T07:47:52;100365.19;;;19.00;47.33
86279;BME280;76943;49.872;8.658;2024-03-06T07:50:17;100355.59;;;19.01;47.43
86279;BME280;76943;49.872;8.658;2024-03-06T07:52:47;100370.13;;;19.03;47.26
86279;BME280;76943;49.872;8.658;2024-03-06T07:55:12;100371.78;;;19.04;47.34
86279;BME280;76943;49.872;8.658;2024-03-06T07:57:37;100377.03;;;19.06;47.55
86279;BME280;76943;49.872;8.658;2024-03-06T08:00:03;100374.22;;;19.06;47.34
86279;BME280;76943;49.872;8.658;2024-03-06T08:02:42;100374.59;;;19.04;47.63
86279;BME280;76943;49.872;8.658;2024-03-06T08:05:09;100376.91;;;19.02;47.51
86279;BME280;76943;49.872;8.658;2024-03-06T08:07:36;100379.25;;;19.00;47.34
86279;BME280;76943;49.872;8.658;2024-03-06T08:10:02;100390.00;;;18.98;47.52
86279;BME280;76943;49.872;8.658;2024-03-06T08:12:27;100380.75;;;18.98;47.70
86279;BME280;76943;49.872;8.658;2024-03-06T08:14:52;100389.19;;;18.98;47.48
86279;BME280;76943;49.872;8.658;2024-03-06T08:17:19;100385.56;;;18.97;47.67
86279;BME280;76943;49.872;8.658;2024-03-06T08:19:44;100384.72;;;18.97;47.66
86279;BME280;76943;49.872;8.658;2024-03-06T08:22:09;100385.06;;;18.95;47.71
86279;BME280;76943;49.872;8.658;2024-03-06T08:24:34;100392.19;;;18.93;47.99
86279;BME280;76943;49.872;8.658;2024-03-06T08:26:59;100384.94;;;18.92;47.94
86279;BME280;76943;49.872;8.658;2024-03-06T08:29:25;100391.72;;;18.91;47.75
86279;BME280;76943;49.872;8.658;2024-03-06T08:31:50;100397.69;;;18.89;48.09
86279;BME280;76943;49.872;8.658;2024-03-06T08:34:15;100386.78;;;18.87;47.91
86279;BME280;76943;49.872;8.658;2024-03-06T08:36:41;100387.94;;;18.86;47.85
86279;BME280;76943;49.872;8.658;2024-03-06T08:39:06;100390.75;;;18.86;47.87
86279;BME280;76943;49.872;8.658;2024-03-06T08:41:31;100395.53;;;18.86;47.83
86279;BME280;76943;49.872;8.658;2024-03-06T08:43:57;100401.50;;;18.84;47.78
86279;BME280;76943;49.872;8.658;2024-03-06T08:46:22;100394.25;;;18.83;47.87
86279;BME280;76943;49.872;8.658;2024-03-06T08:48:48;100397.06;;;18.83;47.85
86279;BME280;76943;49.872;8.658;2024-03-06T08:51:14;100395.75;;;18.81;48.01
86279;BME280;76943;49.872;8.658;2024-03-06T08:53:39;100398.56;;;18.81;47.85
86279;BME280;76943;49.872;8.658;2024-03-06T08:56:05;100395.25;;;18.79;48.05
86279;BME280;76943;49.872;8.658;2024-03-06T08:58:30;100397.25;;;18.78;48.16
86279;BME280;76943;49.872;8.658;2024-03-06T09:00:55;100403.22;;;18.77;47.96
86279;BME280;76943;49.872;8.658;2024-03-06T09:03:20;100408.81;;;18.77;47.94
86279;BME280;76943;49.872;8.658;2024-03-06T09:05:45;100401.94;;;18.74;48.01
86279;BME280;76943;49.872;8.658;2024-03-06T09:08:10;100403.91;;;18.74;47.94
86279;BME280;76943;49.872;8.658;2024-03-06T09:10:37;100405.91;;;18.73;47.64
86279;BME280;76943;49.872;8.658;2024-03-06T09:13:02;100411.03;;;18.71;48.11
86279;BME280;76943;49.872;8.658;2024-03-06T09:15:27;100410.22;;;18.71;48.03
86279;BME280;76943;49.872;8.658;2024-03-06T09:17:53;100407.75;;;18.69;48.27
86279;BME280;76943;49.872;8.658;2024-03-06T09:20:18;100414.19;;;18.70;48.20
86279;BME280;76943;49.872;8.658;2024-03-06T09:22:43;100418.97;;;18.69;48.02
86279;BME280;76943;49.872;8.658;2024-03-06T09:25:08;100421.34;;;18.20;46.77
86279;BME280;76943;49.872;8.658;2024-03-06T09:27:34;100423.31;;;16.61;48.61
86279;BME280;76943;49.872;8.658;2024-03-06T09:29:59;100419.91;;;17.07;48.05
86279;BME280;76943;49.872;8.658;2024-03-06T09:32:24;100424.09;;;17.91;47.72
86279;BME280;76943;49.872;8.658;2024-03-06T09:34:51;100418.16;;;18.31;47.50
86279;BME280;76943;49.872;8.658;2024-03-06T09:37:16;100420.50;;;18.58;47.52
86279;BME280;76943;49.872;8.658;2024-03-06T09:39:41;100418.31;;;18.72;47.54
86279;BME280;76943;49.872;8.658;2024-03-06T09:42:07;100416.25;;;18.81;47.53
86279;BME280;76943;49.872;8.658;2024-03-06T09:44:32;100419.19;;;18.85;47.63
86279;BME280;76943;49.872;8.658;2024-03-06T09:46:59;100415.69;;;18.88;47.45
86279;BME280;76943;49.872;8.658;2024-03-06T09:49:26;100421.81;;;18.90;47.74
86279;BME280;76943;49.872;8.658;2024-03-06T09:51:52;100416.19;;;18.90;47.81
86279;BME280;76943;49.872;8.658;2024-03-06T09:54:19;100417.81;;;18.91;47.47
86279;BME280;76943;49.872;8.658;2024-03-06T09:56:44;100419.00;;;18.90;47.73
86279;BME280;76943;49.872;8.658;2024-03-06T09:59:10;100426.25;;;18.91;47.53
86279;BME280;76943;49.872;8.658;2024-03-06T10:01:36;100417.00;;;18.91;47.71
86279;BME280;76943;49.872;8.658;2024-03-06T10:06:58;100419.00;;;18.90;47.87
86279;BME280;76943;49.872;8.658;2024-03-06T10:09:24;100418.50;;;18.88;47.79
86279;BME280;76943;49.872;8.658;2024-03-06T10:11:50;100415.69;;;18.88;47.97
86279;BME280;76943;49.872;8.658;2024-03-06T10:14:17;100424.13;;;18.88;47.81
86279;BME280;76943;49.872;8.658;2024-03-06T10:19:18;100418.50;;;18.88;47.90
86279;BME280;76943;49.872;8.658;2024-03-06T10:21:44;100428.94;;;18.87;47.94
86279;BME280;76943;49.872;8.658;2024-03-06T10:24:11;100432.56;;;18.88;47.67
86279;BME280;76943;49.872;8.658;2024-03-06T10:26:37;100437.34;;;18.87;47.90
86279;BME280;76943;49.872;8.658;2024-03-06T10:29:02;100435.38;;;18.88;47.72
86279;BME280;76943;49.872;8.658;2024-03-06T10:31:28;100428.09;;;18.87;47.78
86279;BME280;76943;49.872;8.658;2024-03-06T10:33:53;100434.06;;;18.85;47.92
86279;BME280;76943;49.872;8.658;2024-03-06T10:36:18;100444.47;;;18.85;47.58
86279;BME280;76943;49.872;8.658;2024-03-06T10:38:44;100440.03;;;18.84;47.89
86279;BME280;76943;49.872;8.658;2024-03-06T10:41:10;100442.34;;;18.82;47.81
86279;BME280;76943;49.872;8.658;2024-03-06T10:43:38;100442.34;;;18.82;47.80
86279;BME280;76943;49.872;8.658;2024-03-06T10:46:06;100439.06;;;18.80;47.68
86279;BME280;76943;49.872;8.658;2024-03-06T10:48:31;100440.22;;;18.79;47.85
86279;BME280;76943;49.872;8.658;2024-03-06T10:50:56;100442.53;;;18.77;47.84
86279;BME280;76943;49.872;8.658;2024-03-06T10:53:22;100441.75;;;18.76;48.07
86279;BME280;76943;49.872;8.658;2024-03-06T10:55:51;100449.34;;;18.76;48.14
86279;BME280;76943;49.872;8.658;2024-03-06T10:58:16;100437.63;;;18.74;47.75
86279;BME280;76943;49.872;8.658;2024-03-06T11:00:47;100449.69;;;18.74;47.97
86279;BME280;76943;49.872;8.658;2024-03-06T11:03:12;100449.22;;;18.72;47.99
86279;BME280;76943;49.872;8.658;2024-03-06T11:05:38;100444.75;;;18.71;48.06
86279;BME280;76943;49.872;8.658;2024-03-06T11:08:05;100448.38;;;18.72;47.80
86279;BME280;76943;49.872;8.658;2024-03-06T11:10:32;100445.56;;;18.72;47.89
86279;BME280;76943;49.872;8.658;2024-03-06T11:12:58;100446.72;;;18.71;47.88
86279;BME280;76943;49.872;8.658;2024-03-06T11:15:23;100443.94;;;18.71;47.94
86279;BME280;76943;49.872;8.658;2024-03-06T11:17:49;100448.72;;;18.70;48.00
86279;BME280;76943;49.872;8.658;2024-03-06T11:20:17;100445.91;;;18.70;47.91
86279;BME280;76943;49.872;8.658;2024-03-06T11:28:04;100449.88;;;18.69;48.05
86279;BME280;76943;49.872;8.658;2024-03-06T11:30:30;100454.69;;;18.69;48.12
86279;BME280;76943;49.872;8.658;2024-03-06T11:32:59;100448.22;;;18.68;47.99
86279;BME280;76943;49.872;8.658;2024-03-06T11:35:27;100443.78;;;18.67;48.21
86279;BME280;76943;49.872;8.658;2024-03-06T11:37:53;100444.59;;;18.68;48.09
86279;BME280;76943;49.872;8.658;2024-03-06T11:40:25;100445.28;;;18.65;48.16
86279;BME280;76943;49.872;8.658;2024-03-06T11:42:50;100439.00;;;18.68;48.19
86279;BME280;76943;49.872;8.658;2024-03-06T11:45:15;100442.47;;;18.65;48.07
86279;BME280;76943;49.872;8.658;2024-03-06T11:47:59;100448.56;;;18.67;47.99
86279;BME280;76943;49.872;8.658;2024-03-06T11:50:25;100439.66;;;18.65;47.91
86279;BME280;76943;49.872;8.658;2024-03-06T11:52:51;100441.31;;;18.66;47.99
86279;BME280;76943;49.872;8.658;2024-03-06T11:55:16;100446.09;;;18.65;48.17
86279;BME280;76943;49.872;8.658;2024-03-06T11:57:41;100439.66;;;18.65;48.03
86279;BME280;76943;49.872;8.658;2024-03-06T12:00:07;100436.03;;;18.64;48.10
86279;BME280;76943;49.872;8.658;2024-03-06T12:02:33;100453.06;;;18.50;48.12
86279;BME280;76943;49.872;8.658;2024-03-06T12:05:01;100446.59;;;18.59;48.00
86279;BME280;76943;49.872;8.658;2024-03-06T12:07:27;100436.69;;;18.61;47.93
86279;BME280;76943;49.872;8.658;2024-03-06T12:09:52;100439.00;;;18.59;48.05
86279;BME280;76943;49.872;8.658;2024-03-06T12:12:18;100439.00;;;18.59;47.86
86279;BME280;76943;49.872;8.658;2024-03-06T12:14:43;100434.22;;;18.60;48.12
86279;BME280;76943;49.872;8.658;2024-03-06T12:17:11;100449.94;;;18.61;47.97
86279;BME280;76943;49.872;8.658;2024-03-06T12:19:37;100446.28;;;18.60;47.72
86279;BME280;76943;49.872;8.658;2024-03-06T12:22:03;100438.16;;;18.59;47.91
86279;BME280;76943;49.872;8.658;2024-03-06T12:24:29;100445.28;;;18.56;48.22
86279;BME280;76943;49.872;8.658;2024-03-06T12:26:58;100443.31;;;18.56;48.07
86279;BME280;76943;49.872;8.658;2024-03-06T12:29:24;100444.47;;;18.55;48.14
86279;BME280;76943;49.872;8.658;2024-03-06T12:31:52;100444.47;;;18.55;47.96
86279;BME280;76943;49.872;8.658;2024-03-06T12:34:17;100447.75;;;18.58;47.94
86279;BME280;76943;49.872;8.658;2024-03-06T12:36:42;100439.34;;;18.58;48.02
86279;BME280;76943;49.872;8.658;2024-03-06T12:39:08;100429.25;;;18.56;48.42
86279;BME280;76943;49.872;8.658;2024-03-06T12:41:38;100438.50;;;18.57;47.99
86279;BME280;76943;49.872;8.658;2024-03-06T12:44:03;100444.81;;;18.54;48.16
86279;BME280;76943;49.872;8.658;2024-03-06T12:46:28;100443.16;;;18.53;47.99
86279;BME280;76943;49.872;8.658;2024-03-06T12:48:55;100440.00;;;18.54;47.99
86279;BME280;76943;49.872;8.658;2024-03-06T12:51:20;100444.31;;;18.52;48.21
86279;BME280;76943;49.872;8.658;2024-03-06T12:53:45;100444.66;;;18.50;47.82